createdAt,value
2019-01-23T00:00:46.713Z,-0.90
2019-01-23T00:03:17.265Z,-1.00
2019-01-23T00:05:46.874Z,-1.00
2019-01-23T00:08:16.501Z,-1.00
2019-01-23T00:10:46.711Z,-1.00
2019-01-23T00:13:16.353Z,-0.90
2019-01-23T00:15:46.129Z,-0.90
2019-01-23T00:18:15.758Z,-0.90
2019-01-23T00:20:45.612Z,-0.80
2019-01-23T00:23:15.463Z,-0.80
2019-01-23T00:25:45.180Z,-0.80
2019-01-23T00:28:14.808Z,-0.80
2019-01-23T00:30:44.446Z,-0.70
2019-01-23T00:33:14.183Z,-0.70
2019-01-23T00:35:43.901Z,-0.70
2019-01-23T00:38:13.501Z,-0.80
2019-01-23T00:40:43.208Z,-0.80
2019-01-23T00:43:12.963Z,-1.00
2019-01-23T00:45:42.595Z,-0.90
2019-01-23T00:48:12.201Z,-0.90
2019-01-23T00:50:42.327Z,-0.90
2019-01-23T00:53:12.725Z,-0.90
2019-01-23T00:55:42.470Z,-0.90
2019-01-23T00:58:12.143Z,-0.80
2019-01-23T01:00:42.850Z,-0.80
2019-01-23T01:03:12.606Z,-0.90
2019-01-23T01:05:42.296Z,-0.90
2019-01-23T01:08:11.978Z,-0.90
2019-01-23T01:10:41.744Z,-0.90
2019-01-23T01:13:11.427Z,-1.10
2019-01-23T01:15:41.166Z,-1.10
2019-01-23T01:18:10.918Z,-1.10
2019-01-23T01:20:41.090Z,-1.10
2019-01-23T01:23:10.846Z,-1.10
2019-01-23T01:25:40.714Z,-1.10
2019-01-23T01:28:10.336Z,-1.10
2019-01-23T01:30:40.073Z,-1.00
2019-01-23T01:33:10.678Z,-0.90
2019-01-23T01:35:40.491Z,-0.90
2019-01-23T01:38:10.202Z,-0.90
2019-01-23T01:40:40.014Z,-0.80
2019-01-23T01:43:09.621Z,-0.80
2019-01-23T01:45:39.265Z,-0.90
2019-01-23T01:48:08.887Z,-0.90
2019-01-23T01:50:38.621Z,-0.90
2019-01-23T01:53:08.302Z,-0.90
2019-01-23T01:55:37.946Z,-0.90
2019-01-23T01:58:10.238Z,-0.90
2019-01-23T02:00:51.581Z,-1.00
2019-01-23T02:03:21.189Z,-1.00
2019-01-23T02:05:51.134Z,-1.00
2019-01-23T02:08:20.868Z,-1.00
2019-01-23T02:10:50.561Z,-1.00
2019-01-23T02:13:20.180Z,-1.00
2019-01-23T02:15:49.818Z,-1.10
2019-01-23T02:18:19.521Z,-1.10
2019-01-23T02:20:49.266Z,-1.10
2019-01-23T02:23:18.973Z,-1.00
2019-01-23T02:25:48.813Z,-1.00
2019-01-23T02:28:18.526Z,-1.00
2019-01-23T02:30:48.270Z,-1.00
2019-01-23T02:33:17.879Z,-1.10
2019-01-23T02:35:48.216Z,-1.10
2019-01-23T02:38:17.821Z,-1.10
2019-01-23T02:40:47.453Z,-1.10
2019-01-23T02:43:17.061Z,-1.10
2019-01-23T02:45:46.697Z,-1.10
2019-01-23T02:48:16.309Z,-1.20
2019-01-23T02:50:46.065Z,-1.20
2019-01-23T02:53:15.683Z,-1.20
2019-01-23T02:55:45.410Z,-1.20
2019-01-23T02:58:15.022Z,-1.10
2019-01-23T03:00:44.660Z,-1.10
2019-01-23T03:03:14.267Z,-1.10
2019-01-23T03:05:44.016Z,-1.10
2019-01-23T03:08:13.641Z,-1.20
2019-01-23T03:10:43.264Z,-1.10
2019-01-23T03:13:13.073Z,-1.10
2019-01-23T03:15:42.995Z,-1.10
2019-01-23T03:18:12.809Z,-1.10
2019-01-23T03:20:42.438Z,-1.20
2019-01-23T03:23:12.074Z,-1.20
2019-01-23T03:25:41.718Z,-1.30
2019-01-23T03:28:13.086Z,-1.30
2019-01-23T03:30:42.704Z,-1.20
2019-01-23T03:33:12.341Z,-1.10
2019-01-23T03:35:42.014Z,-1.00
2019-01-23T03:38:11.672Z,-1.10
2019-01-23T03:41:00.802Z,-1.10
2019-01-23T03:43:42.873Z,-1.20
2019-01-23T03:46:24.707Z,-1.20
2019-01-23T03:49:06.103Z,-1.20
2019-01-23T03:51:35.851Z,-1.20
2019-01-23T03:54:24.819Z,-1.20
2019-01-23T03:57:07.220Z,-1.10
2019-01-23T03:59:49.278Z,-1.10
2019-01-23T04:02:31.226Z,-1.10
2019-01-23T04:05:12.919Z,-1.20
2019-01-23T04:07:42.723Z,-1.20
2019-01-23T04:10:31.714Z,-1.30
2019-01-23T04:13:01.322Z,-1.30
2019-01-23T04:15:31.326Z,-1.30
2019-01-23T04:18:01.051Z,-1.30
2019-01-23T04:20:30.813Z,-1.30
2019-01-23T04:23:00.569Z,-1.20
2019-01-23T04:25:49.642Z,-1.20
2019-01-23T04:28:31.919Z,-1.20
2019-01-23T04:31:13.359Z,-1.10
2019-01-23T04:33:55.219Z,-1.10
2019-01-23T04:36:37.347Z,-1.10
2019-01-23T04:39:19.692Z,-1.20
2019-01-23T04:42:01.672Z,-1.20
2019-01-23T04:44:43.934Z,-1.20
2019-01-23T04:47:25.854Z,-1.20
2019-01-23T04:50:07.727Z,-1.20
2019-01-23T04:53:08.427Z,-1.10
2019-01-23T04:55:50.051Z,-1.00
2019-01-23T04:58:31.520Z,-1.10
2019-01-23T05:01:13.531Z,-1.10
2019-01-23T05:03:55.531Z,-1.20
2019-01-23T05:06:38.960Z,-1.20
2019-01-23T05:09:20.931Z,-1.10
2019-01-23T05:12:02.824Z,-1.10
2019-01-23T05:14:44.652Z,-1.10
2019-01-23T05:17:26.276Z,-1.00
2019-01-23T05:20:08.487Z,-1.00
2019-01-23T05:22:50.385Z,-1.00
2019-01-23T05:25:32.196Z,-1.00
2019-01-23T05:28:14.406Z,-1.00
2019-01-23T05:30:56.395Z,-1.00
2019-01-23T05:33:38.467Z,-1.00
2019-01-23T05:36:20.564Z,-1.00
2019-01-23T05:39:02.812Z,-1.00
2019-01-23T05:41:44.917Z,-1.00
2019-01-23T05:44:27.147Z,-1.10
2019-01-23T05:47:09.099Z,-1.10
2019-01-23T05:49:51.111Z,-1.20
2019-01-23T05:52:32.919Z,-1.20
2019-01-23T05:55:15.279Z,-1.10
2019-01-23T05:57:57.343Z,-1.10
2019-01-23T06:00:39.263Z,-1.10
2019-01-23T06:03:21.538Z,-1.10
2019-01-23T06:06:03.555Z,-1.20
2019-01-23T06:08:45.150Z,-1.20
2019-01-23T06:11:27.064Z,-1.20
2019-01-23T06:14:09.168Z,-1.30
2019-01-23T06:16:51.244Z,-1.30
2019-01-23T06:19:33.263Z,-1.40
2019-01-23T06:22:15.162Z,-1.40
2019-01-23T06:24:56.847Z,-1.50
2019-01-23T06:27:38.641Z,-1.40
2019-01-23T06:30:19.989Z,-1.30
2019-01-23T06:33:02.058Z,-1.30
2019-01-23T06:35:44.323Z,-1.30
2019-01-23T06:38:26.414Z,-1.40
2019-01-23T06:41:08.096Z,-1.50
2019-01-23T06:43:50.306Z,-1.50
2019-01-23T06:46:31.791Z,-1.40
2019-01-23T06:49:13.771Z,-1.40
2019-01-23T06:51:55.441Z,-1.40
2019-01-23T06:54:37.131Z,-1.40
2019-01-23T06:57:19.051Z,-1.30
2019-01-23T07:00:00.944Z,-1.20
2019-01-23T07:02:42.934Z,-1.10
2019-01-23T07:05:24.958Z,-1.10
2019-01-23T07:08:06.604Z,-1.20
2019-01-23T07:10:48.995Z,-1.10
2019-01-23T07:13:30.985Z,-1.10
2019-01-23T07:16:13.318Z,-1.10
2019-01-23T07:18:55.120Z,-1.10
2019-01-23T07:21:37.403Z,-1.00
2019-01-23T07:24:19.415Z,-1.00
2019-01-23T07:27:01.590Z,-1.00
2019-01-23T07:29:43.344Z,-1.00
2019-01-23T07:32:25.138Z,-0.90
2019-01-23T07:35:06.607Z,-0.90
2019-01-23T07:37:48.609Z,-0.90
2019-01-23T07:40:30.935Z,-0.90
2019-01-23T07:43:12.808Z,-0.80
2019-01-23T07:45:55.036Z,-0.80
2019-01-23T07:48:37.081Z,-0.80
2019-01-23T07:51:19.193Z,-0.80
2019-01-23T07:54:01.155Z,-0.70
2019-01-23T07:56:43.020Z,-0.70
2019-01-23T07:59:25.014Z,-0.80
2019-01-23T08:02:06.774Z,-0.80
2019-01-23T08:04:48.826Z,-0.80
2019-01-23T08:07:30.575Z,-0.90
2019-01-23T08:10:12.517Z,-0.90
2019-01-23T08:12:54.455Z,-1.00
2019-01-23T08:15:36.359Z,-1.00
2019-01-23T08:18:18.119Z,-1.00
2019-01-23T08:21:00.115Z,-0.90
2019-01-23T08:23:42.195Z,-0.90
2019-01-23T08:26:24.118Z,-0.90
2019-01-23T08:29:06.279Z,-1.00
2019-01-23T08:31:48.174Z,-1.00
2019-01-23T08:34:30.066Z,-0.90
2019-01-23T08:37:12.115Z,-0.90
2019-01-23T08:39:54.288Z,-0.90
2019-01-23T08:42:36.131Z,-1.00
2019-01-23T08:45:17.928Z,-1.00
2019-01-23T08:47:59.386Z,-0.90
2019-01-23T08:50:41.159Z,-0.90
2019-01-23T08:53:23.922Z,-0.90
2019-01-23T08:56:06.052Z,-0.90
2019-01-23T08:58:48.178Z,-0.80
2019-01-23T09:01:30.310Z,-0.80
2019-01-23T09:04:14.403Z,-0.80
2019-01-23T09:06:56.422Z,-0.70
2019-01-23T09:09:38.291Z,-0.60
2019-01-23T09:12:20.543Z,-0.60
2019-01-23T09:15:02.835Z,-0.60
2019-01-23T09:17:44.919Z,-0.50
2019-01-23T09:20:27.890Z,-0.50
2019-01-23T09:23:11.109Z,-0.40
2019-01-23T09:25:54.674Z,-0.40
2019-01-23T09:28:36.655Z,-0.40
2019-01-23T09:31:19.111Z,-0.40
2019-01-23T09:34:03.977Z,-0.40
2019-01-23T09:36:45.552Z,-0.40
2019-01-23T09:39:27.071Z,-0.40
2019-01-23T09:42:08.988Z,-0.40
2019-01-23T09:44:50.681Z,-0.40
2019-01-23T09:47:32.442Z,-0.40
2019-01-23T09:50:14.702Z,-0.30
2019-01-23T09:52:56.765Z,-0.30
2019-01-23T09:55:38.502Z,-0.40
2019-01-23T09:58:20.599Z,-0.40
2019-01-23T10:01:02.576Z,-0.30
2019-01-23T10:03:45.463Z,-0.20
2019-01-23T10:06:27.439Z,-0.20
2019-01-23T10:09:09.568Z,-0.10
2019-01-23T10:11:51.200Z,-0.10
2019-01-23T10:14:33.082Z,-0.10
2019-01-23T10:17:15.331Z,0.00
2019-01-23T10:19:57.902Z,0.00
2019-01-23T10:22:40.518Z,0.00
2019-01-23T10:25:32.178Z,-0.10
2019-01-23T10:28:36.545Z,0.00
2019-01-23T10:31:21.306Z,0.00
2019-01-23T10:34:02.825Z,0.00
2019-01-23T10:36:58.729Z,0.00
2019-01-23T10:39:52.466Z,0.00
2019-01-23T10:49:13.167Z,0.20
2019-01-23T10:52:03.476Z,0.20
2019-01-23T11:01:13.218Z,0.20
2019-01-23T11:03:53.597Z,0.20
2019-01-23T11:06:38.900Z,0.20
2019-01-23T11:09:27.065Z,0.30
2019-01-23T11:12:16.502Z,0.30
2019-01-23T11:15:23.309Z,0.40
2019-01-23T11:18:08.273Z,0.40
2019-01-23T11:20:53.362Z,0.40
2019-01-23T11:23:36.156Z,0.40
2019-01-23T11:26:21.155Z,0.40
2019-01-23T11:29:04.474Z,0.40
2019-01-23T11:31:46.713Z,0.40
2019-01-23T11:34:30.138Z,0.30
2019-01-23T11:37:11.855Z,0.30
2019-01-23T11:39:53.700Z,0.40
2019-01-23T11:42:35.395Z,0.30
2019-01-23T11:45:17.008Z,0.30
2019-01-23T11:47:58.902Z,0.30
2019-01-23T11:50:40.723Z,0.40
2019-01-23T11:53:23.303Z,0.40
2019-01-23T11:56:05.180Z,0.40
2019-01-23T11:58:46.915Z,0.40
2019-01-23T12:01:28.679Z,0.50
2019-01-23T12:04:10.219Z,0.50
2019-01-23T12:06:52.193Z,0.50
2019-01-23T12:09:33.779Z,0.50
2019-01-23T12:12:15.319Z,0.40
2019-01-23T12:14:57.169Z,0.40
2019-01-23T12:17:39.094Z,0.30
2019-01-23T12:20:21.259Z,0.30
2019-01-23T12:23:03.518Z,0.30
2019-01-23T12:25:45.974Z,0.20
2019-01-23T12:28:29.137Z,0.20
2019-01-23T12:31:11.966Z,0.20
2019-01-23T12:33:57.246Z,0.20
2019-01-23T12:36:40.833Z,0.10
2019-01-23T12:39:24.485Z,0.10
2019-01-23T12:42:06.699Z,0.10
2019-01-23T12:44:49.474Z,0.20
2019-01-23T12:47:32.044Z,-0.20
2019-01-23T12:50:13.868Z,-0.10
2019-01-23T12:52:56.000Z,0.00
2019-01-23T12:55:37.825Z,0.10
2019-01-23T12:58:19.887Z,0.10
2019-01-23T13:01:01.511Z,0.10
2019-01-23T13:03:31.117Z,0.20
2019-01-23T13:06:12.782Z,0.20
2019-01-23T13:08:54.499Z,0.10
2019-01-23T13:11:37.686Z,0.10
2019-01-23T13:14:19.788Z,0.00
2019-01-23T13:16:49.487Z,0.10
2019-01-23T13:19:38.557Z,0.10
2019-01-23T13:22:20.639Z,0.20
2019-01-23T13:25:02.431Z,0.20
2019-01-23T13:27:44.680Z,0.20
2019-01-23T13:30:26.432Z,0.10
2019-01-23T13:33:08.626Z,0.20
2019-01-23T13:35:50.670Z,0.20
2019-01-23T13:38:32.868Z,0.00
2019-01-23T13:41:14.336Z,0.00
2019-01-23T13:43:56.420Z,0.00
2019-01-23T13:46:37.995Z,0.00
2019-01-23T13:49:19.887Z,0.00
2019-01-23T13:52:01.855Z,0.00
2019-01-23T13:54:43.671Z,0.00
2019-01-23T13:57:25.743Z,-0.10
2019-01-23T14:00:07.723Z,-0.30
2019-01-23T14:02:49.788Z,-0.20
2019-01-23T14:05:31.750Z,-0.20
2019-01-23T14:08:13.850Z,-0.20
2019-01-23T14:10:55.759Z,-0.30
2019-01-23T14:13:37.535Z,-0.30
2019-01-23T14:16:19.643Z,-0.60
2019-01-23T14:19:01.214Z,-0.50
2019-01-23T14:21:43.021Z,-0.40
2019-01-23T14:24:25.225Z,-0.60
2019-01-23T14:27:06.919Z,-0.50
2019-01-23T14:29:49.306Z,-0.50
2019-01-23T14:32:31.371Z,-0.60
2019-01-23T14:35:13.080Z,-0.60
2019-01-23T14:38:00.528Z,-0.50
2019-01-23T14:40:38.128Z,-0.50
2019-01-23T14:43:20.246Z,-0.50
2019-01-23T14:46:01.753Z,-0.50
2019-01-23T14:48:43.698Z,-0.60
2019-01-23T14:51:25.311Z,-0.70
2019-01-23T14:54:07.819Z,-0.70
2019-01-23T14:56:38.188Z,-0.70
2019-01-23T14:59:27.912Z,-0.70
2019-01-23T15:02:10.371Z,-0.70
2019-01-23T15:04:52.097Z,-0.80
2019-01-23T15:07:34.399Z,-0.80
2019-01-23T15:10:16.380Z,-0.90
2019-01-23T15:12:58.459Z,-0.80
2019-01-23T15:15:40.784Z,-1.00
2019-01-23T15:18:22.793Z,-0.90
2019-01-23T15:21:04.654Z,-1.00
2019-01-23T15:23:47.952Z,-1.10
2019-01-23T15:26:30.012Z,-1.00
2019-01-23T15:29:12.514Z,-1.00
2019-01-23T15:31:55.477Z,-1.00
2019-01-23T15:34:38.742Z,-1.00
2019-01-23T15:37:20.864Z,-1.00
2019-01-23T15:40:02.898Z,-1.00
2019-01-23T15:42:44.934Z,-1.10
2019-01-23T15:45:26.692Z,-1.10
2019-01-23T15:48:09.102Z,-1.10
2019-01-23T15:50:51.485Z,-1.20
2019-01-23T15:53:34.884Z,-1.20
2019-01-23T15:56:16.987Z,-1.30
2019-01-23T15:58:58.811Z,-1.40
2019-01-23T16:01:41.309Z,-1.40
2019-01-23T16:04:23.295Z,-1.40
2019-01-23T16:07:04.679Z,-1.40
2019-01-23T16:09:46.871Z,-1.40
2019-01-23T16:12:29.813Z,-1.50
2019-01-23T16:15:11.834Z,-1.50
2019-01-23T16:17:54.027Z,-1.40
2019-01-23T16:20:36.151Z,-1.40
2019-01-23T16:23:18.185Z,-1.40
2019-01-23T16:25:59.952Z,-1.30
2019-01-23T16:28:42.102Z,-1.30
2019-01-23T16:31:23.886Z,-1.30
2019-01-23T16:34:06.027Z,-1.30
2019-01-23T16:36:47.810Z,-1.30
2019-01-23T16:39:30.125Z,-1.30
2019-01-23T16:42:12.165Z,-1.30
2019-01-23T16:44:54.233Z,-1.30
2019-01-23T16:47:36.476Z,-1.20
2019-01-23T16:50:18.772Z,-1.20
2019-01-23T16:53:00.578Z,-1.20
2019-01-23T16:55:42.810Z,-1.20
2019-01-23T16:58:25.121Z,-1.30
2019-01-23T17:01:06.906Z,-1.30
2019-01-23T17:03:49.083Z,-1.40
2019-01-23T17:09:27.077Z,-1.20
2019-01-23T17:12:09.388Z,-1.20
2019-01-23T17:14:51.828Z,-1.20
2019-01-23T17:17:33.795Z,-1.20
2019-01-23T17:20:16.221Z,-1.20
2019-01-23T17:22:59.079Z,-1.30
2019-01-23T17:25:41.187Z,-1.20
2019-01-23T17:28:23.404Z,-1.20
2019-01-23T17:31:06.035Z,-1.20
2019-01-23T17:33:47.922Z,-1.30
2019-01-23T17:36:30.131Z,-1.30
2019-01-23T17:39:12.646Z,-1.30
2019-01-23T17:41:56.462Z,-1.20
2019-01-23T17:44:38.627Z,-1.20
2019-01-23T17:47:21.249Z,-1.10
2019-01-23T17:50:04.801Z,-1.10
2019-01-23T17:52:47.005Z,-1.00
2019-01-23T17:55:28.496Z,-1.00
2019-01-23T17:58:17.431Z,-1.10
2019-01-23T18:00:54.408Z,-1.10
2019-01-23T18:03:24.086Z,-1.10
2019-01-23T18:05:53.793Z,-1.20
2019-01-23T18:08:23.871Z,-1.20
2019-01-23T18:10:53.834Z,-1.10
2019-01-23T18:13:23.495Z,-1.10
2019-01-23T18:15:53.330Z,-1.10
2019-01-23T18:18:22.945Z,-1.10
2019-01-23T18:20:52.581Z,-1.10
2019-01-23T18:23:22.187Z,-1.10
2019-01-23T18:25:51.818Z,-1.10
2019-01-23T18:28:21.498Z,-1.10
2019-01-23T18:31:25.234Z,-1.10
2019-01-23T18:34:14.769Z,-1.20
2019-01-23T18:37:05.858Z,-1.10
2019-01-23T18:39:47.294Z,-1.10
2019-01-23T18:42:38.230Z,-1.10
2019-01-23T18:45:13.625Z,-1.00
2019-01-23T18:48:04.112Z,-1.00
2019-01-23T18:50:39.530Z,-1.00
2019-01-23T18:53:10.532Z,-0.90
2019-01-23T18:55:40.418Z,-0.90
2019-01-23T18:58:10.178Z,-0.80
2019-01-23T19:00:39.817Z,-0.80
2019-01-23T19:03:09.588Z,-0.80
2019-01-23T19:05:39.269Z,-0.80
2019-01-23T19:08:08.973Z,-1.00
2019-01-23T19:10:39.424Z,-1.00
2019-01-23T19:13:09.234Z,-1.00
2019-01-23T19:15:39.328Z,-0.90
2019-01-23T19:18:09.099Z,-0.90
2019-01-23T19:20:39.481Z,-0.90
2019-01-23T19:23:09.220Z,-1.00
2019-01-23T19:25:38.931Z,-1.00
2019-01-23T19:28:08.573Z,-1.00
2019-01-23T19:30:38.662Z,-1.00
2019-01-23T19:33:13.469Z,-1.00
2019-01-23T19:35:39.866Z,-1.10
2019-01-23T19:38:09.494Z,-1.20
2019-01-23T19:40:39.312Z,-1.20
2019-01-23T19:43:09.042Z,-1.20
2019-01-23T19:45:38.923Z,-1.10
2019-01-23T19:48:08.710Z,-1.10
2019-01-23T19:50:38.445Z,-1.10
2019-01-23T19:53:20.194Z,-1.20
2019-01-23T19:55:51.917Z,-1.30
2019-01-23T19:58:21.727Z,-1.20
2019-01-23T20:00:51.781Z,-1.20
2019-01-23T20:03:21.659Z,-1.10
2019-01-23T20:05:51.270Z,-1.10
2019-01-23T20:08:21.061Z,-1.20
2019-01-23T20:10:50.782Z,-1.20
2019-01-23T20:13:20.482Z,-1.30
2019-01-23T20:15:50.189Z,-1.30
2019-01-23T20:18:19.910Z,-1.30
2019-01-23T20:20:49.694Z,-1.50
2019-01-23T20:23:19.342Z,-1.40
2019-01-23T20:25:48.957Z,-1.40
2019-01-23T20:28:18.691Z,-1.30
2019-01-23T20:30:48.414Z,-1.30
2019-01-23T20:33:18.043Z,-1.30
2019-01-23T20:35:47.766Z,-1.50
2019-01-23T20:38:17.566Z,-1.50
2019-01-23T20:40:47.518Z,-1.40
2019-01-23T20:43:17.130Z,-1.30
2019-01-23T20:45:47.018Z,-1.30
2019-01-23T20:48:16.652Z,-1.30
2019-01-23T20:50:46.319Z,-1.30
2019-01-23T20:53:15.905Z,-1.30
2019-01-23T20:55:45.523Z,-1.30
2019-01-23T20:58:15.375Z,-1.30
2019-01-23T21:00:45.150Z,-1.20
2019-01-23T21:03:14.764Z,-1.20
2019-01-23T21:05:44.502Z,-1.30
2019-01-23T21:08:14.197Z,-1.40
2019-01-23T21:10:44.312Z,-1.40
2019-01-23T21:13:13.962Z,-1.40
2019-01-23T21:15:43.606Z,-1.40
2019-01-23T21:18:13.413Z,-1.40
2019-01-23T21:20:43.186Z,-1.40
2019-01-23T21:23:12.792Z,-1.60
2019-01-23T21:25:42.731Z,-1.70
2019-01-23T21:28:12.434Z,-1.70
2019-01-23T21:30:42.103Z,-1.70
2019-01-23T21:33:11.713Z,-1.60
2019-01-23T21:35:41.338Z,-1.60
2019-01-23T21:38:10.997Z,-1.60
2019-01-23T21:40:40.623Z,-1.60
2019-01-23T21:43:10.229Z,-1.60
2019-01-23T21:45:39.967Z,-1.60
2019-01-23T21:48:09.609Z,-1.60
2019-01-23T21:50:39.241Z,-1.70
2019-01-23T21:53:08.845Z,-1.70
2019-01-23T21:55:38.482Z,-1.70
2019-01-23T21:58:08.194Z,-1.70
2019-01-23T22:00:40.953Z,-1.80
2019-01-23T22:03:11.598Z,-1.80
2019-01-23T22:05:41.410Z,-2.00
2019-01-23T22:08:11.091Z,-1.90
2019-01-23T22:10:40.830Z,-1.90
2019-01-23T22:13:10.437Z,-1.90
2019-01-23T22:15:40.261Z,-1.90
2019-01-23T22:18:09.943Z,-1.80
2019-01-23T22:20:41.382Z,-1.90
2019-01-23T22:23:11.060Z,-1.90
2019-01-23T22:25:40.693Z,-1.80
2019-01-23T22:28:10.301Z,-1.80
2019-01-23T22:30:40.110Z,-1.80
2019-01-23T22:33:09.831Z,-1.90
2019-01-23T22:35:39.466Z,-1.80
2019-01-23T22:38:09.214Z,-1.80
2019-01-23T22:40:38.921Z,-1.80
2019-01-23T22:43:14.839Z,-1.70
2019-01-23T22:45:39.794Z,-1.70
2019-01-23T22:48:09.406Z,-1.70
2019-01-23T22:50:39.085Z,-1.90
2019-01-23T22:53:08.702Z,-2.00
2019-01-23T22:55:38.347Z,-2.10
2019-01-23T22:58:08.026Z,-2.10
2019-01-23T23:00:41.629Z,-2.00
2019-01-23T23:03:13.379Z,-1.90
2019-01-23T23:05:44.521Z,-1.90
2019-01-23T23:08:14.409Z,-1.90
2019-01-23T23:10:44.210Z,-1.90
2019-01-23T23:13:13.930Z,-1.90
2019-01-23T23:15:43.729Z,-1.90
2019-01-23T23:18:13.419Z,-2.00
2019-01-23T23:20:43.174Z,-2.10
2019-01-23T23:23:12.794Z,-2.10
2019-01-23T23:25:42.541Z,-2.10
2019-01-23T23:28:12.356Z,-2.00
2019-01-23T23:30:41.961Z,-1.90
2019-01-23T23:33:13.253Z,-1.90
2019-01-23T23:35:42.919Z,-1.90
2019-01-23T23:38:12.555Z,-2.00
2019-01-23T23:40:42.161Z,-1.90
2019-01-23T23:43:11.798Z,-2.00
2019-01-23T23:45:41.478Z,-2.00
2019-01-23T23:48:11.187Z,-1.90
2019-01-23T23:50:40.899Z,-2.00
2019-01-23T23:53:10.691Z,-2.10
2019-01-23T23:55:40.492Z,-2.00
2019-01-23T23:58:10.323Z,-2.00
